sensor_id;sensor_type;location;lat;lon;timestamp;temperature;humidity
31113;DHT22;17763;48.730;9.136;2022-09-27T00:00:51;11.10;99.90
31113;DHT22;17763;48.730;9.136;2022-09-27T00:03:17;11.10;99.90
31113;DHT22;17763;48.730;9.136;2022-09-27T00:05:42;11.10;99.90
31113;DHT22;17763;48.730;9.136;2022-09-27T00:08:08;11.10;99.90
31113;DHT22;17763;48.730;9.136;2022-09-27T00:10:34;11.10;99.90
31113;DHT22;17763;48.730;9.136;2022-09-27T00:12:59;11.10;99.90
31113;DHT22;17763;48.730;9.136;2022-09-27T00:15:25;11.10;99.90
31113;DHT22;17763;48.730;9.136;2022-09-27T00:17:51;11.00;99.90
31113;DHT22;17763;48.730;9.136;2022-09-27T00:20:18;11.10;99.90
31113;DHT22;17763;48.730;9.136;2022-09-27T00:22:45;11.00;99.90
31113;DHT22;17763;48.730;9.136;2022-09-27T00:25:13;11.00;99.90
31113;DHT22;17763;48.730;9.136;2022-09-27T00:27:38;11.00;99.90
31113;DHT22;17763;48.730;9.136;2022-09-27T00:30:04;11.00;99.90
31113;DHT22;17763;48.730;9.136;2022-09-27T00:32:30;10.90;99.90
31113;DHT22;17763;48.730;9.136;2022-09-27T00:34:56;10.90;99.90
31113;DHT22;17763;48.730;9.136;2022-09-27T00:37:21;11.00;99.90
31113;DHT22;17763;48.730;9.136;2022-09-27T00:39:47;11.00;99.90
31113;DHT22;17763;48.730;9.136;2022-09-27T00:42:14;11.00;99.90
31113;DHT22;17763;48.730;9.136;2022-09-27T00:50:08;11.00;99.90
31113;DHT22;17763;48.730;9.136;2022-09-27T00:52:49;10.90;99.90
31113;DHT22;17763;48.730;9.136;2022-09-27T00:55:26;10.90;99.90
31113;DHT22;17763;48.730;9.136;2022-09-27T00:57:54;11.00;99.90
31113;DHT22;17763;48.730;9.136;2022-09-27T01:00:22;10.90;99.90
31113;DHT22;17763;48.730;9.136;2022-09-27T01:02:51;10.90;99.90
31113;DHT22;17763;48.730;9.136;2022-09-27T01:05:19;11.00;99.90
31113;DHT22;17763;48.730;9.136;2022-09-27T01:07:45;10.90;99.90
31113;DHT22;17763;48.730;9.136;2022-09-27T01:10:12;10.90;99.90
31113;DHT22;17763;48.730;9.136;2022-09-27T01:18:25;10.90;99.90
31113;DHT22;17763;48.730;9.136;2022-09-27T01:29:08;10.90;99.90
31113;DHT22;17763;48.730;9.136;2022-09-27T01:40:13;11.00;99.90
31113;DHT22;17763;48.730;9.136;2022-09-27T01:45:45;10.90;99.90
31113;DHT22;17763;48.730;9.136;2022-09-27T01:50:57;10.80;99.90
31113;DHT22;17763;48.730;9.136;2022-09-27T01:56:03;10.90;99.90
31113;DHT22;17763;48.730;9.136;2022-09-27T01:58:41;10.90;99.90
31113;DHT22;17763;48.730;9.136;2022-09-27T02:01:11;10.90;99.90
31113;DHT22;17763;48.730;9.136;2022-09-27T02:03:46;10.90;99.90
31113;DHT22;17763;48.730;9.136;2022-09-27T02:08:52;10.90;99.90
31113;DHT22;17763;48.730;9.136;2022-09-27T02:11:23;11.00;99.90
31113;DHT22;17763;48.730;9.136;2022-09-27T02:19:07;10.90;99.90
31113;DHT22;17763;48.730;9.136;2022-09-27T02:24:21;10.90;99.90
31113;DHT22;17763;48.730;9.136;2022-09-27T02:27:00;10.80;99.90
31113;DHT22;17763;48.730;9.136;2022-09-27T02:29:34;10.70;99.90
31113;DHT22;17763;48.730;9.136;2022-09-27T02:32:04;10.70;99.90
31113;DHT22;17763;48.730;9.136;2022-09-27T02:34:32;10.60;99.90
31113;DHT22;17763;48.730;9.136;2022-09-27T02:37:01;10.40;99.90
31113;DHT22;17763;48.730;9.136;2022-09-27T02:39:30;10.40;99.90
31113;DHT22;17763;48.730;9.136;2022-09-27T02:41:58;10.30;99.90
31113;DHT22;17763;48.730;9.136;2022-09-27T02:44:25;10.30;99.90
31113;DHT22;17763;48.730;9.136;2022-09-27T02:54:39;10.30;99.90
31113;DHT22;17763;48.730;9.136;2022-09-27T02:59:49;10.30;99.90
31113;DHT22;17763;48.730;9.136;2022-09-27T03:02:37;10.30;99.90
31113;DHT22;17763;48.730;9.136;2022-09-27T03:05:26;10.30;99.90
31113;DHT22;17763;48.730;9.136;2022-09-27T03:07:53;10.20;99.90
31113;DHT22;17763;48.730;9.136;2022-09-27T03:10:29;10.20;99.90
31113;DHT22;17763;48.730;9.136;2022-09-27T03:12:56;10.20;99.90
31113;DHT22;17763;48.730;9.136;2022-09-27T03:15:23;10.10;99.90
31113;DHT22;17763;48.730;9.136;2022-09-27T03:17:49;10.10;99.90
31113;DHT22;17763;48.730;9.136;2022-09-27T03:20:14;10.10;99.90
31113;DHT22;17763;48.730;9.136;2022-09-27T03:22:40;10.00;99.90
31113;DHT22;17763;48.730;9.136;2022-09-27T03:25:07;10.00;99.90
31113;DHT22;17763;48.730;9.136;2022-09-27T03:27:33;10.00;99.90
31113;DHT22;17763;48.730;9.136;2022-09-27T03:29:59;10.00;99.90
31113;DHT22;17763;48.730;9.136;2022-09-27T03:32:27;10.00;99.90
31113;DHT22;17763;48.730;9.136;2022-09-27T03:34:53;9.90;99.90
31113;DHT22;17763;48.730;9.136;2022-09-27T03:37:20;9.90;99.90
31113;DHT22;17763;48.730;9.136;2022-09-27T03:39:46;9.90;99.90
31113;DHT22;17763;48.730;9.136;2022-09-27T03:42:12;9.80;99.90
31113;DHT22;17763;48.730;9.136;2022-09-27T03:44:38;9.80;99.90
31113;DHT22;17763;48.730;9.136;2022-09-27T03:47:04;9.80;99.90
31113;DHT22;17763;48.730;9.136;2022-09-27T03:49:30;9.80;99.90
31113;DHT22;17763;48.730;9.136;2022-09-27T03:51:59;9.80;99.90
31113;DHT22;17763;48.730;9.136;2022-09-27T03:54:27;9.80;99.90
31113;DHT22;17763;48.730;9.136;2022-09-27T03:56:55;9.70;99.90
31113;DHT22;17763;48.730;9.136;2022-09-27T03:59:24;9.70;99.90
31113;DHT22;17763;48.730;9.136;2022-09-27T04:01:49;9.70;99.90
31113;DHT22;17763;48.730;9.136;2022-09-27T04:04:15;9.80;99.90
31113;DHT22;17763;48.730;9.136;2022-09-27T04:06:41;9.80;99.90
31113;DHT22;17763;48.730;9.136;2022-09-27T04:09:07;9.80;99.90
31113;DHT22;17763;48.730;9.136;2022-09-27T04:11:33;9.80;99.90
31113;DHT22;17763;48.730;9.136;2022-09-27T04:13:58;9.80;99.90
31113;DHT22;17763;48.730;9.136;2022-09-27T04:16:24;9.80;99.90
31113;DHT22;17763;48.730;9.136;2022-09-27T04:18:50;9.80;99.90
31113;DHT22;17763;48.730;9.136;2022-09-27T04:21:16;9.70;99.90
31113;DHT22;17763;48.730;9.136;2022-09-27T04:23:45;9.80;99.90
31113;DHT22;17763;48.730;9.136;2022-09-27T04:26:13;9.80;99.90
31113;DHT22;17763;48.730;9.136;2022-09-27T04:28:41;9.80;99.90
31113;DHT22;17763;48.730;9.136;2022-09-27T04:31:09;9.80;99.90
31113;DHT22;17763;48.730;9.136;2022-09-27T04:33:35;9.80;99.90
31113;DHT22;17763;48.730;9.136;2022-09-27T04:36:01;9.80;99.90
31113;DHT22;17763;48.730;9.136;2022-09-27T04:38:45;9.80;99.90
31113;DHT22;17763;48.730;9.136;2022-09-27T04:41:12;9.80;99.90
31113;DHT22;17763;48.730;9.136;2022-09-27T04:43:39;9.70;99.90
31113;DHT22;17763;48.730;9.136;2022-09-27T04:46:08;9.70;99.90
31113;DHT22;17763;48.730;9.136;2022-09-27T04:48:33;9.70;99.90
31113;DHT22;17763;48.730;9.136;2022-09-27T04:51:01;9.70;99.90
31113;DHT22;17763;48.730;9.136;2022-09-27T04:53:28;9.70;99.90
31113;DHT22;17763;48.730;9.136;2022-09-27T04:55:57;9.80;99.90
31113;DHT22;17763;48.730;9.136;2022-09-27T04:58:24;9.70;99.90
31113;DHT22;17763;48.730;9.136;2022-09-27T05:00:50;9.70;99.90
31113;DHT22;17763;48.730;9.136;2022-09-27T05:03:21;9.70;99.90
31113;DHT22;17763;48.730;9.136;2022-09-27T05:05:46;9.70;99.90
31113;DHT22;17763;48.730;9.136;2022-09-27T05:08:13;9.80;99.90
31113;DHT22;17763;48.730;9.136;2022-09-27T05:10:41;9.80;99.90
31113;DHT22;17763;48.730;9.136;2022-09-27T05:13:07;9.80;99.90
31113;DHT22;17763;48.730;9.136;2022-09-27T05:15:33;9.80;99.90
31113;DHT22;17763;48.730;9.136;2022-09-27T05:17:59;9.80;99.90
31113;DHT22;17763;48.730;9.136;2022-09-27T05:20:25;9.80;99.90
31113;DHT22;17763;48.730;9.136;2022-09-27T05:22:51;9.80;99.90
31113;DHT22;17763;48.730;9.136;2022-09-27T05:25:17;9.80;99.90
31113;DHT22;17763;48.730;9.136;2022-09-27T05:27:46;9.80;99.90
31113;DHT22;17763;48.730;9.136;2022-09-27T05:30:12;9.80;99.90
31113;DHT22;17763;48.730;9.136;2022-09-27T05:32:45;9.80;99.90
31113;DHT22;17763;48.730;9.136;2022-09-27T05:35:13;9.80;99.90
31113;DHT22;17763;48.730;9.136;2022-09-27T05:37:39;9.70;99.90
31113;DHT22;17763;48.730;9.136;2022-09-27T05:40:05;9.70;99.90
31113;DHT22;17763;48.730;9.136;2022-09-27T05:42:32;9.80;99.90
31113;DHT22;17763;48.730;9.136;2022-09-27T05:45:00;9.70;99.90
31113;DHT22;17763;48.730;9.136;2022-09-27T05:47:26;9.80;99.90
31113;DHT22;17763;48.730;9.136;2022-09-27T05:49:52;9.80;99.90
31113;DHT22;17763;48.730;9.136;2022-09-27T05:52:21;9.80;99.90
31113;DHT22;17763;48.730;9.136;2022-09-27T05:54:48;9.70;99.90
31113;DHT22;17763;48.730;9.136;2022-09-27T05:57:13;9.70;99.90
31113;DHT22;17763;48.730;9.136;2022-09-27T05:59:39;9.70;99.90
31113;DHT22;17763;48.730;9.136;2022-09-27T06:02:05;9.70;99.90
31113;DHT22;17763;48.730;9.136;2022-09-27T06:04:34;9.70;99.90
31113;DHT22;17763;48.730;9.136;2022-09-27T06:07:00;9.70;99.90
31113;DHT22;17763;48.730;9.136;2022-09-27T06:09:25;9.70;99.90
31113;DHT22;17763;48.730;9.136;2022-09-27T06:11:53;9.70;99.90
31113;DHT22;17763;48.730;9.136;2022-09-27T06:14:19;9.70;99.90
31113;DHT22;17763;48.730;9.136;2022-09-27T06:16:45;9.70;99.90
31113;DHT22;17763;48.730;9.136;2022-09-27T06:19:11;9.60;99.90
31113;DHT22;17763;48.730;9.136;2022-09-27T06:21:37;9.60;99.90
31113;DHT22;17763;48.730;9.136;2022-09-27T06:24:03;9.60;99.90
31113;DHT22;17763;48.730;9.136;2022-09-27T06:26:29;9.60;99.90
31113;DHT22;17763;48.730;9.136;2022-09-27T06:28:55;9.60;99.90
31113;DHT22;17763;48.730;9.136;2022-09-27T06:31:21;9.60;99.90
31113;DHT22;17763;48.730;9.136;2022-09-27T06:33:49;9.70;99.90
31113;DHT22;17763;48.730;9.136;2022-09-27T06:36:16;9.70;99.90
31113;DHT22;17763;48.730;9.136;2022-09-27T06:38:42;9.70;99.90
31113;DHT22;17763;48.730;9.136;2022-09-27T06:41:14;9.70;99.90
31113;DHT22;17763;48.730;9.136;2022-09-27T06:43:40;9.80;99.90
31113;DHT22;17763;48.730;9.136;2022-09-27T06:46:06;9.70;99.90
31113;DHT22;17763;48.730;9.136;2022-09-27T06:48:32;9.70;99.90
31113;DHT22;17763;48.730;9.136;2022-09-27T06:50:58;9.80;99.90
31113;DHT22;17763;48.730;9.136;2022-09-27T06:53:27;9.80;99.90
31113;DHT22;17763;48.730;9.136;2022-09-27T06:56:00;9.70;99.90
31113;DHT22;17763;48.730;9.136;2022-09-27T06:58:27;9.80;99.90
31113;DHT22;17763;48.730;9.136;2022-09-27T07:01:12;9.80;99.90
31113;DHT22;17763;48.730;9.136;2022-09-27T07:03:38;9.80;99.90
31113;DHT22;17763;48.730;9.136;2022-09-27T07:06:14;9.90;99.90
31113;DHT22;17763;48.730;9.136;2022-09-27T07:08:40;9.90;99.90
31113;DHT22;17763;48.730;9.136;2022-09-27T07:11:07;9.90;99.90
31113;DHT22;17763;48.730;9.136;2022-09-27T07:13:33;9.90;99.90
31113;DHT22;17763;48.730;9.136;2022-09-27T07:16:01;9.80;99.90
31113;DHT22;17763;48.730;9.136;2022-09-27T07:18:30;9.80;99.90
31113;DHT22;17763;48.730;9.136;2022-09-27T07:20:58;9.80;99.90
31113;DHT22;17763;48.730;9.136;2022-09-27T07:23:25;9.80;99.90
31113;DHT22;17763;48.730;9.136;2022-09-27T07:25:51;9.80;99.90
31113;DHT22;17763;48.730;9.136;2022-09-27T07:28:18;9.90;99.90
31113;DHT22;17763;48.730;9.136;2022-09-27T07:30:45;9.80;99.90
31113;DHT22;17763;48.730;9.136;2022-09-27T07:33:12;9.80;99.90
31113;DHT22;17763;48.730;9.136;2022-09-27T07:35:39;9.80;99.90
31113;DHT22;17763;48.730;9.136;2022-09-27T07:38:06;9.80;99.90
31113;DHT22;17763;48.730;9.136;2022-09-27T07:40:36;9.80;99.90
31113;DHT22;17763;48.730;9.136;2022-09-27T07:43:02;9.80;99.90
31113;DHT22;17763;48.730;9.136;2022-09-27T07:45:30;9.70;99.90
31113;DHT22;17763;48.730;9.136;2022-09-27T07:47:56;9.70;99.90
31113;DHT22;17763;48.730;9.136;2022-09-27T07:50:22;9.80;99.90
31113;DHT22;17763;48.730;9.136;2022-09-27T07:52:51;9.80;99.90
31113;DHT22;17763;48.730;9.136;2022-09-27T07:55:17;9.90;99.90
31113;DHT22;17763;48.730;9.136;2022-09-27T07:57:44;9.90;99.90
31113;DHT22;17763;48.730;9.136;2022-09-27T08:00:13;9.90;99.90
31113;DHT22;17763;48.730;9.136;2022-09-27T08:02:42;9.90;99.90
31113;DHT22;17763;48.730;9.136;2022-09-27T08:05:12;9.90;99.90
31113;DHT22;17763;48.730;9.136;2022-09-27T08:07:38;10.00;99.90
31113;DHT22;17763;48.730;9.136;2022-09-27T08:10:05;9.90;99.90
31113;DHT22;17763;48.730;9.136;2022-09-27T08:12:32;10.00;99.90
31113;DHT22;17763;48.730;9.136;2022-09-27T08:14:57;10.00;99.90
31113;DHT22;17763;48.730;9.136;2022-09-27T08:17:27;10.00;99.90
31113;DHT22;17763;48.730;9.136;2022-09-27T08:19:53;10.00;99.90
31113;DHT22;17763;48.730;9.136;2022-09-27T08:22:19;10.00;99.90
31113;DHT22;17763;48.730;9.136;2022-09-27T08:24:48;10.00;99.90
31113;DHT22;17763;48.730;9.136;2022-09-27T08:27:15;10.00;99.90
31113;DHT22;17763;48.730;9.136;2022-09-27T08:29:41;10.10;99.90
31113;DHT22;17763;48.730;9.136;2022-09-27T08:32:08;10.30;99.90
31113;DHT22;17763;48.730;9.136;2022-09-27T08:34:34;10.30;99.90
31113;DHT22;17763;48.730;9.136;2022-09-27T08:37:00;10.30;99.90
31113;DHT22;17763;48.730;9.136;2022-09-27T08:39:27;10.40;99.90
31113;DHT22;17763;48.730;9.136;2022-09-27T08:50:24;10.30;99.90
31113;DHT22;17763;48.730;9.136;2022-09-27T08:55:40;10.20;99.90
31113;DHT22;17763;48.730;9.136;2022-09-27T09:00:38;10.20;99.90
31113;DHT22;17763;48.730;9.136;2022-09-27T09:03:04;10.30;99.90
31113;DHT22;17763;48.730;9.136;2022-09-27T09:05:34;10.30;99.90
31113;DHT22;17763;48.730;9.136;2022-09-27T09:08:10;10.40;99.90
31113;DHT22;17763;48.730;9.136;2022-09-27T09:10:50;10.50;99.90
31113;DHT22;17763;48.730;9.136;2022-09-27T09:19:46;10.60;99.90
31113;DHT22;17763;48.730;9.136;2022-09-27T09:22:35;10.60;99.90
31113;DHT22;17763;48.730;9.136;2022-09-27T09:25:25;10.60;99.90
31113;DHT22;17763;48.730;9.136;2022-09-27T09:31:31;10.80;99.90
31113;DHT22;17763;48.730;9.136;2022-09-27T09:34:19;11.00;99.90
31113;DHT22;17763;48.730;9.136;2022-09-27T09:37:01;11.00;99.90
31113;DHT22;17763;48.730;9.136;2022-09-27T09:39:48;11.00;99.90
31113;DHT22;17763;48.730;9.136;2022-09-27T09:42:22;11.10;99.90
31113;DHT22;17763;48.730;9.136;2022-09-27T09:48:05;10.90;99.90
31113;DHT22;17763;48.730;9.136;2022-09-27T09:50:39;11.00;99.90
31113;DHT22;17763;48.730;9.136;2022-09-27T09:56:22;11.00;99.90
31113;DHT22;17763;48.730;9.136;2022-09-27T09:59:01;10.90;99.90
31113;DHT22;17763;48.730;9.136;2022-09-27T10:01:40;11.10;99.90
31113;DHT22;17763;48.730;9.136;2022-09-27T10:04:14;11.20;99.90
31113;DHT22;17763;48.730;9.136;2022-09-27T10:06:42;11.10;99.90
31113;DHT22;17763;48.730;9.136;2022-09-27T10:09:11;11.20;99.90
31113;DHT22;17763;48.730;9.136;2022-09-27T10:11:42;11.30;99.90
31113;DHT22;17763;48.730;9.136;2022-09-27T10:14:16;11.40;99.90
31113;DHT22;17763;48.730;9.136;2022-09-27T10:16:47;11.50;99.90
31113;DHT22;17763;48.730;9.136;2022-09-27T10:19:22;11.50;99.90
31113;DHT22;17763;48.730;9.136;2022-09-27T10:21:51;11.50;99.90
31113;DHT22;17763;48.730;9.136;2022-09-27T10:24:17;11.50;99.90
31113;DHT22;17763;48.730;9.136;2022-09-27T10:26:45;11.40;99.90
31113;DHT22;17763;48.730;9.136;2022-09-27T10:29:23;11.40;99.90
31113;DHT22;17763;48.730;9.136;2022-09-27T10:31:55;11.40;99.90
31113;DHT22;17763;48.730;9.136;2022-09-27T10:34:32;11.30;99.90
31113;DHT22;17763;48.730;9.136;2022-09-27T10:39:30;11.20;99.90
31113;DHT22;17763;48.730;9.136;2022-09-27T10:41:56;11.30;99.90
31113;DHT22;17763;48.730;9.136;2022-09-27T10:44:28;11.20;99.90
31113;DHT22;17763;48.730;9.136;2022-09-27T10:47:07;11.30;99.90
31113;DHT22;17763;48.730;9.136;2022-09-27T10:49:40;11.30;99.90
31113;DHT22;17763;48.730;9.136;2022-09-27T10:52:16;11.40;99.90
31113;DHT22;17763;48.730;9.136;2022-09-27T10:54:58;11.40;99.90
31113;DHT22;17763;48.730;9.136;2022-09-27T10:57:27;11.40;99.90
31113;DHT22;17763;48.730;9.136;2022-09-27T11:00:03;11.50;99.90
31113;DHT22;17763;48.730;9.136;2022-09-27T11:02:37;11.50;99.90
31113;DHT22;17763;48.730;9.136;2022-09-27T11:07:58;11.50;99.90
31113;DHT22;17763;48.730;9.136;2022-09-27T11:10:35;11.60;99.90
31113;DHT22;17763;48.730;9.136;2022-09-27T11:27:15;11.60;99.40
31113;DHT22;17763;48.730;9.136;2022-09-27T11:29:59;11.50;99.40
31113;DHT22;17763;48.730;9.136;2022-09-27T11:35:58;11.60;99.90
31113;DHT22;17763;48.730;9.136;2022-09-27T11:47:10;11.50;99.90
31113;DHT22;17763;48.730;9.136;2022-09-27T11:53:10;11.50;99.90
31113;DHT22;17763;48.730;9.136;2022-09-27T11:58:30;11.60;99.90
31113;DHT22;17763;48.730;9.136;2022-09-27T12:01:25;11.50;99.90
31113;DHT22;17763;48.730;9.136;2022-09-27T12:06:51;11.40;99.90
31113;DHT22;17763;48.730;9.136;2022-09-27T12:09:31;11.40;99.90
31113;DHT22;17763;48.730;9.136;2022-09-27T12:12:21;11.50;99.90
31113;DHT22;17763;48.730;9.136;2022-09-27T12:15:05;11.50;99.90
31113;DHT22;17763;48.730;9.136;2022-09-27T12:17:40;11.50;99.90
31113;DHT22;17763;48.730;9.136;2022-09-27T12:20:24;11.50;99.90
31113;DHT22;17763;48.730;9.136;2022-09-27T12:25:44;11.50;99.90
31113;DHT22;17763;48.730;9.136;2022-09-27T12:31:26;11.40;99.90
31113;DHT22;17763;48.730;9.136;2022-09-27T12:34:11;11.20;99.90
31113;DHT22;17763;48.730;9.136;2022-09-27T12:36:43;11.00;99.90
31113;DHT22;17763;48.730;9.136;2022-09-27T12:39:20;11.00;99.90
31113;DHT22;17763;48.730;9.136;2022-09-27T12:42:10;10.90;99.90
31113;DHT22;17763;48.730;9.136;2022-09-27T12:44:38;10.90;99.90
31113;DHT22;17763;48.730;9.136;2022-09-27T12:52:34;11.00;99.90
31113;DHT22;17763;48.730;9.136;2022-09-27T12:57:50;11.10;99.90
31113;DHT22;17763;48.730;9.136;2022-09-27T13:00:32;11.20;99.90
31113;DHT22;17763;48.730;9.136;2022-09-27T13:06:47;11.40;99.90
31113;DHT22;17763;48.730;9.136;2022-09-27T13:12:17;11.50;99.90
31113;DHT22;17763;48.730;9.136;2022-09-27T13:14:59;11.60;99.90
31113;DHT22;17763;48.730;9.136;2022-09-27T13:17:32;11.60;99.90
31113;DHT22;17763;48.730;9.136;2022-09-27T13:19:58;11.70;99.90
31113;DHT22;17763;48.730;9.136;2022-09-27T13:24:55;11.70;99.90
31113;DHT22;17763;48.730;9.136;2022-09-27T13:29:50;11.60;99.90
31113;DHT22;17763;48.730;9.136;2022-09-27T13:32:19;11.60;99.90
31113;DHT22;17763;48.730;9.136;2022-09-27T13:34:53;11.60;99.90
31113;DHT22;17763;48.730;9.136;2022-09-27T13:37:28;11.60;99.90
31113;DHT22;17763;48.730;9.136;2022-09-27T13:40:23;11.50;99.90
31113;DHT22;17763;48.730;9.136;2022-09-27T13:43:36;11.60;99.90
31113;DHT22;17763;48.730;9.136;2022-09-27T13:46:14;11.70;99.90
31113;DHT22;17763;48.730;9.136;2022-09-27T13:48:49;11.70;99.90
31113;DHT22;17763;48.730;9.136;2022-09-27T13:51:39;11.60;99.90
31113;DHT22;17763;48.730;9.136;2022-09-27T13:56:59;11.60;99.90
31113;DHT22;17763;48.730;9.136;2022-09-27T13:59:41;11.60;99.90
31113;DHT22;17763;48.730;9.136;2022-09-27T14:02:22;11.60;99.90
31113;DHT22;17763;48.730;9.136;2022-09-27T14:04:50;11.60;99.90
31113;DHT22;17763;48.730;9.136;2022-09-27T14:07:21;11.60;99.90
31113;DHT22;17763;48.730;9.136;2022-09-27T14:09:52;11.50;99.90
31113;DHT22;17763;48.730;9.136;2022-09-27T14:12:27;11.40;99.90
31113;DHT22;17763;48.730;9.136;2022-09-27T14:14:54;11.40;99.90
31113;DHT22;17763;48.730;9.136;2022-09-27T14:17:21;11.40;99.90
31113;DHT22;17763;48.730;9.136;2022-09-27T14:19:47;11.40;99.90
31113;DHT22;17763;48.730;9.136;2022-09-27T14:22:17;11.40;99.90
31113;DHT22;17763;48.730;9.136;2022-09-27T14:24:51;11.40;99.90
31113;DHT22;17763;48.730;9.136;2022-09-27T14:27:29;11.40;99.90
31113;DHT22;17763;48.730;9.136;2022-09-27T14:30:06;11.40;99.90
31113;DHT22;17763;48.730;9.136;2022-09-27T14:32:33;11.40;99.90
31113;DHT22;17763;48.730;9.136;2022-09-27T14:35:16;11.30;99.90
31113;DHT22;17763;48.730;9.136;2022-09-27T14:38:09;11.30;99.90
31113;DHT22;17763;48.730;9.136;2022-09-27T14:40:42;11.30;99.90
31113;DHT22;17763;48.730;9.136;2022-09-27T14:43:18;11.30;99.90
31113;DHT22;17763;48.730;9.136;2022-09-27T14:45:45;11.30;99.90
31113;DHT22;17763;48.730;9.136;2022-09-27T14:48:28;11.30;99.90
31113;DHT22;17763;48.730;9.136;2022-09-27T14:51:19;11.20;99.90
31113;DHT22;17763;48.730;9.136;2022-09-27T14:53:51;11.20;99.90
31113;DHT22;17763;48.730;9.136;2022-09-27T14:59:03;11.30;99.90
31113;DHT22;17763;48.730;9.136;2022-09-27T15:01:33;11.30;99.90
31113;DHT22;17763;48.730;9.136;2022-09-27T15:04:10;11.40;99.90
31113;DHT22;17763;48.730;9.136;2022-09-27T15:06:38;11.40;99.90
31113;DHT22;17763;48.730;9.136;2022-09-27T15:09:04;11.60;99.90
31113;DHT22;17763;48.730;9.136;2022-09-27T15:11:31;11.80;99.90
31113;DHT22;17763;48.730;9.136;2022-09-27T15:14:00;11.80;99.90
31113;DHT22;17763;48.730;9.136;2022-09-27T15:16:29;11.90;99.90
31113;DHT22;17763;48.730;9.136;2022-09-27T15:19:02;11.80;99.70
31113;DHT22;17763;48.730;9.136;2022-09-27T15:21:33;11.80;99.40
31113;DHT22;17763;48.730;9.136;2022-09-27T15:23:59;11.90;99.10
31113;DHT22;17763;48.730;9.136;2022-09-27T15:26:45;12.00;98.60
31113;DHT22;17763;48.730;9.136;2022-09-27T15:29:24;11.90;98.30
31113;DHT22;17763;48.730;9.136;2022-09-27T15:32:02;11.70;98.50
31113;DHT22;17763;48.730;9.136;2022-09-27T15:34:29;11.70;99.00
31113;DHT22;17763;48.730;9.136;2022-09-27T15:36:58;11.50;99.10
31113;DHT22;17763;48.730;9.136;2022-09-27T15:39:36;11.50;99.50
31113;DHT22;17763;48.730;9.136;2022-09-27T15:42:08;11.50;99.90
31113;DHT22;17763;48.730;9.136;2022-09-27T15:47:08;11.50;99.90
31113;DHT22;17763;48.730;9.136;2022-09-27T15:49:50;11.40;99.40
31113;DHT22;17763;48.730;9.136;2022-09-27T15:52:41;11.40;99.50
31113;DHT22;17763;48.730;9.136;2022-09-27T15:55:10;11.40;99.30
31113;DHT22;17763;48.730;9.136;2022-09-27T15:57:37;11.40;99.20
31113;DHT22;17763;48.730;9.136;2022-09-27T16:00:04;11.40;98.30
31113;DHT22;17763;48.730;9.136;2022-09-27T16:02:30;11.40;98.10
31113;DHT22;17763;48.730;9.136;2022-09-27T16:04:59;11.40;98.10
31113;DHT22;17763;48.730;9.136;2022-09-27T16:07:24;11.40;98.20
31113;DHT22;17763;48.730;9.136;2022-09-27T16:09:50;11.50;98.20
31113;DHT22;17763;48.730;9.136;2022-09-27T16:12:20;11.30;96.20
31113;DHT22;17763;48.730;9.136;2022-09-27T16:14:46;11.30;95.50
31113;DHT22;17763;48.730;9.136;2022-09-27T16:17:12;11.20;95.20
31113;DHT22;17763;48.730;9.136;2022-09-27T16:19:38;11.20;95.60
31113;DHT22;17763;48.730;9.136;2022-09-27T16:22:04;11.20;96.10
31113;DHT22;17763;48.730;9.136;2022-09-27T16:24:30;11.20;96.30
31113;DHT22;17763;48.730;9.136;2022-09-27T16:26:57;11.20;96.40
31113;DHT22;17763;48.730;9.136;2022-09-27T16:29:23;11.20;96.80
31113;DHT22;17763;48.730;9.136;2022-09-27T16:31:49;11.10;97.30
31113;DHT22;17763;48.730;9.136;2022-09-27T16:34:17;11.10;97.70
31113;DHT22;17763;48.730;9.136;2022-09-27T16:36:43;11.10;97.90
31113;DHT22;17763;48.730;9.136;2022-09-27T16:39:15;11.10;98.20
31113;DHT22;17763;48.730;9.136;2022-09-27T16:41:40;11.10;98.50
31113;DHT22;17763;48.730;9.136;2022-09-27T16:44:12;11.10;98.60
31113;DHT22;17763;48.730;9.136;2022-09-27T16:46:42;11.10;98.60
31113;DHT22;17763;48.730;9.136;2022-09-27T16:49:10;10.90;98.60
31113;DHT22;17763;48.730;9.136;2022-09-27T16:51:57;10.90;98.90
31113;DHT22;17763;48.730;9.136;2022-09-27T16:54:27;10.90;98.90
31113;DHT22;17763;48.730;9.136;2022-09-27T16:56:54;10.90;99.10
31113;DHT22;17763;48.730;9.136;2022-09-27T16:59:20;10.70;99.10
31113;DHT22;17763;48.730;9.136;2022-09-27T17:01:47;10.70;99.50
31113;DHT22;17763;48.730;9.136;2022-09-27T17:04:12;10.70;99.70
31113;DHT22;17763;48.730;9.136;2022-09-27T17:06:43;10.70;99.80
31113;DHT22;17763;48.730;9.136;2022-09-27T17:09:09;10.60;99.90
31113;DHT22;17763;48.730;9.136;2022-09-27T17:11:36;10.60;99.90
31113;DHT22;17763;48.730;9.136;2022-09-27T17:14:02;10.60;99.90
31113;DHT22;17763;48.730;9.136;2022-09-27T17:16:28;10.60;99.90
31113;DHT22;17763;48.730;9.136;2022-09-27T17:18:55;10.50;99.90
31113;DHT22;17763;48.730;9.136;2022-09-27T17:21:21;10.50;99.90
31113;DHT22;17763;48.730;9.136;2022-09-27T17:23:50;10.50;99.90
31113;DHT22;17763;48.730;9.136;2022-09-27T17:26:21;10.50;99.90
31113;DHT22;17763;48.730;9.136;2022-09-27T17:28:51;10.50;99.90
31113;DHT22;17763;48.730;9.136;2022-09-27T17:31:19;10.40;99.90
31113;DHT22;17763;48.730;9.136;2022-09-27T17:33:49;10.30;99.90
31113;DHT22;17763;48.730;9.136;2022-09-27T17:36:23;10.30;99.90
31113;DHT22;17763;48.730;9.136;2022-09-27T17:38:51;10.20;99.90
31113;DHT22;17763;48.730;9.136;2022-09-27T17:41:19;10.20;99.90
31113;DHT22;17763;48.730;9.136;2022-09-27T17:43:45;10.20;99.90
31113;DHT22;17763;48.730;9.136;2022-09-27T17:46:15;10.20;99.90
31113;DHT22;17763;48.730;9.136;2022-09-27T17:48:44;10.10;99.90
31113;DHT22;17763;48.730;9.136;2022-09-27T17:51:29;10.10;99.90
31113;DHT22;17763;48.730;9.136;2022-09-27T17:54:00;10.00;99.90
31113;DHT22;17763;48.730;9.136;2022-09-27T17:56:28;9.90;99.90
31113;DHT22;17763;48.730;9.136;2022-09-27T17:58:57;9.90;99.90
31113;DHT22;17763;48.730;9.136;2022-09-27T18:01:23;9.90;99.90
31113;DHT22;17763;48.730;9.136;2022-09-27T18:03:54;9.90;99.90
31113;DHT22;17763;48.730;9.136;2022-09-27T18:06:21;10.00;99.90
31113;DHT22;17763;48.730;9.136;2022-09-27T18:08:48;9.90;99.90
31113;DHT22;17763;48.730;9.136;2022-09-27T18:11:20;9.90;99.90
31113;DHT22;17763;48.730;9.136;2022-09-27T18:13:57;9.90;99.90
31113;DHT22;17763;48.730;9.136;2022-09-27T18:16:31;9.90;99.90
31113;DHT22;17763;48.730;9.136;2022-09-27T18:19:00;9.80;99.90
31113;DHT22;17763;48.730;9.136;2022-09-27T18:21:27;9.80;99.90
31113;DHT22;17763;48.730;9.136;2022-09-27T18:23:55;9.80;99.90
31113;DHT22;17763;48.730;9.136;2022-09-27T18:26:25;9.80;99.90
31113;DHT22;17763;48.730;9.136;2022-09-27T18:28:53;9.80;99.90
31113;DHT22;17763;48.730;9.136;2022-09-27T18:31:23;9.80;99.90
31113;DHT22;17763;48.730;9.136;2022-09-27T18:33:51;9.70;99.90
31113;DHT22;17763;48.730;9.136;2022-09-27T18:36:25;9.80;99.90